sensor_id;sensor_type;location;lat;lon;timestamp;P1;durP1;ratioP1;P2;durP2;ratioP2
4986;SDS011;12674;51.500;7.552;2022-12-07T00:01:21;49.10;;;30.87;;
4986;SDS011;12674;51.500;7.552;2022-12-07T00:03:25;43.67;;;30.23;;
4986;SDS011;12674;51.500;7.552;2022-12-07T00:05:29;43.73;;;29.07;;
4986;SDS011;12674;51.500;7.552;2022-12-07T00:07:32;52.63;;;32.53;;
4986;SDS011;12674;51.500;7.552;2022-12-07T00:09:35;45.40;;;31.80;;
4986;SDS011;12674;51.500;7.552;2022-12-07T00:11:38;46.30;;;31.07;;
4986;SDS011;12674;51.500;7.552;2022-12-07T00:13:41;43.27;;;30.30;;
4986;SDS011;12674;51.500;7.552;2022-12-07T00:15:45;52.43;;;30.40;;
4986;SDS011;12674;51.500;7.552;2022-12-07T00:17:48;41.60;;;29.57;;
4986;SDS011;12674;51.500;7.552;2022-12-07T00:19:51;52.13;;;30.67;;
4986;SDS011;12674;51.500;7.552;2022-12-07T00:21:54;39.57;;;30.63;;
4986;SDS011;12674;51.500;7.552;2022-12-07T00:23:57;42.53;;;30.60;;
4986;SDS011;12674;51.500;7.552;2022-12-07T00:26:03;44.10;;;31.73;;
4986;SDS011;12674;51.500;7.552;2022-12-07T00:28:07;43.87;;;30.43;;
4986;SDS011;12674;51.500;7.552;2022-12-07T00:30:12;43.00;;;30.43;;
4986;SDS011;12674;51.500;7.552;2022-12-07T00:32:17;45.23;;;31.33;;
4986;SDS011;12674;51.500;7.552;2022-12-07T00:34:20;39.47;;;30.33;;
4986;SDS011;12674;51.500;7.552;2022-12-07T00:36:24;41.27;;;30.23;;
4986;SDS011;12674;51.500;7.552;2022-12-07T00:38:30;44.53;;;30.80;;
4986;SDS011;12674;51.500;7.552;2022-12-07T00:40:33;40.73;;;28.83;;
4986;SDS011;12674;51.500;7.552;2022-12-07T00:42:37;35.40;;;28.47;;
4986;SDS011;12674;51.500;7.552;2022-12-07T00:44:40;38.90;;;28.80;;
4986;SDS011;12674;51.500;7.552;2022-12-07T00:46:42;38.37;;;27.40;;
4986;SDS011;12674;51.500;7.552;2022-12-07T00:48:48;38.27;;;28.90;;
4986;SDS011;12674;51.500;7.552;2022-12-07T00:50:51;45.00;;;29.30;;
4986;SDS011;12674;51.500;7.552;2022-12-07T00:52:54;39.83;;;28.93;;
4986;SDS011;12674;51.500;7.552;2022-12-07T00:54:57;43.40;;;28.90;;
4986;SDS011;12674;51.500;7.552;2022-12-07T00:57:00;35.47;;;27.80;;
4986;SDS011;12674;51.500;7.552;2022-12-07T00:59:03;40.20;;;28.33;;
4986;SDS011;12674;51.500;7.552;2022-12-07T01:01:07;38.73;;;28.20;;
4986;SDS011;12674;51.500;7.552;2022-12-07T01:03:11;40.03;;;27.97;;
4986;SDS011;12674;51.500;7.552;2022-12-07T01:05:17;39.70;;;28.80;;
4986;SDS011;12674;51.500;7.552;2022-12-07T01:07:19;39.73;;;26.60;;
4986;SDS011;12674;51.500;7.552;2022-12-07T01:09:22;37.53;;;28.80;;
4986;SDS011;12674;51.500;7.552;2022-12-07T01:11:26;38.83;;;28.03;;
4986;SDS011;12674;51.500;7.552;2022-12-07T01:13:32;36.00;;;25.87;;
4986;SDS011;12674;51.500;7.552;2022-12-07T01:15:38;35.40;;;27.20;;
4986;SDS011;12674;51.500;7.552;2022-12-07T01:17:41;38.03;;;26.30;;
4986;SDS011;12674;51.500;7.552;2022-12-07T01:19:44;35.47;;;27.60;;
4986;SDS011;12674;51.500;7.552;2022-12-07T01:21:48;34.47;;;26.73;;
4986;SDS011;12674;51.500;7.552;2022-12-07T01:23:52;36.80;;;25.83;;
4986;SDS011;12674;51.500;7.552;2022-12-07T01:25:55;32.27;;;24.63;;
4986;SDS011;12674;51.500;7.552;2022-12-07T01:27:58;38.63;;;26.10;;
4986;SDS011;12674;51.500;7.552;2022-12-07T01:30:02;33.43;;;25.13;;
4986;SDS011;12674;51.500;7.552;2022-12-07T01:32:06;32.63;;;23.90;;
4986;SDS011;12674;51.500;7.552;2022-12-07T01:34:09;29.63;;;23.93;;
4986;SDS011;12674;51.500;7.552;2022-12-07T01:36:13;29.03;;;22.37;;
4986;SDS011;12674;51.500;7.552;2022-12-07T01:38:19;33.80;;;22.50;;
4986;SDS011;12674;51.500;7.552;2022-12-07T01:40:22;35.43;;;23.53;;
4986;SDS011;12674;51.500;7.552;2022-12-07T01:42:25;33.80;;;23.17;;
4986;SDS011;12674;51.500;7.552;2022-12-07T01:44:28;28.47;;;21.93;;
4986;SDS011;12674;51.500;7.552;2022-12-07T01:46:34;27.53;;;21.83;;
4986;SDS011;12674;51.500;7.552;2022-12-07T01:48:37;29.37;;;23.27;;
4986;SDS011;12674;51.500;7.552;2022-12-07T01:50:42;31.90;;;23.33;;
4986;SDS011;12674;51.500;7.552;2022-12-07T01:52:46;38.50;;;24.90;;
4986;SDS011;12674;51.500;7.552;2022-12-07T01:54:54;28.87;;;24.27;;
4986;SDS011;12674;51.500;7.552;2022-12-07T01:56:59;34.53;;;25.23;;
4986;SDS011;12674;51.500;7.552;2022-12-07T01:59:02;33.17;;;26.10;;
4986;SDS011;12674;51.500;7.552;2022-12-07T02:01:05;34.40;;;25.80;;
4986;SDS011;12674;51.500;7.552;2022-12-07T02:03:09;34.13;;;26.60;;
4986;SDS011;12674;51.500;7.552;2022-12-07T02:05:15;33.07;;;26.40;;
4986;SDS011;12674;51.500;7.552;2022-12-07T02:07:19;36.37;;;26.70;;
4986;SDS011;12674;51.500;7.552;2022-12-07T02:09:22;37.07;;;26.33;;
4986;SDS011;12674;51.500;7.552;2022-12-07T02:11:27;32.83;;;25.70;;
4986;SDS011;12674;51.500;7.552;2022-12-07T02:13:30;29.33;;;24.03;;
4986;SDS011;12674;51.500;7.552;2022-12-07T02:15:38;39.60;;;26.40;;
4986;SDS011;12674;51.500;7.552;2022-12-07T02:17:49;33.67;;;26.50;;
4986;SDS011;12674;51.500;7.552;2022-12-07T02:20:13;38.63;;;26.70;;
4986;SDS011;12674;51.500;7.552;2022-12-07T02:22:29;33.80;;;24.47;;
4986;SDS011;12674;51.500;7.552;2022-12-07T02:24:45;32.77;;;23.47;;
4986;SDS011;12674;51.500;7.552;2022-12-07T02:27:16;32.40;;;24.73;;
4986;SDS011;12674;51.500;7.552;2022-12-07T02:29:40;30.80;;;24.10;;
4986;SDS011;12674;51.500;7.552;2022-12-07T02:31:49;35.93;;;25.73;;
4986;SDS011;12674;51.500;7.552;2022-12-07T02:34:00;34.80;;;25.87;;
4986;SDS011;12674;51.500;7.552;2022-12-07T02:36:06;36.33;;;24.90;;
4986;SDS011;12674;51.500;7.552;2022-12-07T02:38:12;29.87;;;23.10;;
4986;SDS011;12674;51.500;7.552;2022-12-07T02:40:18;30.20;;;24.37;;
4986;SDS011;12674;51.500;7.552;2022-12-07T02:42:24;32.57;;;25.70;;
4986;SDS011;12674;51.500;7.552;2022-12-07T02:44:29;36.53;;;24.00;;
4986;SDS011;12674;51.500;7.552;2022-12-07T02:46:35;34.50;;;24.43;;
4986;SDS011;12674;51.500;7.552;2022-12-07T02:48:40;28.63;;;23.20;;
4986;SDS011;12674;51.500;7.552;2022-12-07T02:50:44;32.00;;;24.90;;
4986;SDS011;12674;51.500;7.552;2022-12-07T02:52:48;32.30;;;22.97;;
4986;SDS011;12674;51.500;7.552;2022-12-07T02:54:51;34.97;;;24.03;;
4986;SDS011;12674;51.500;7.552;2022-12-07T02:56:56;32.00;;;23.40;;
4986;SDS011;12674;51.500;7.552;2022-12-07T02:59:07;29.30;;;23.13;;
4986;SDS011;12674;51.500;7.552;2022-12-07T03:01:20;27.40;;;21.80;;
4986;SDS011;12674;51.500;7.552;2022-12-07T03:03:32;32.17;;;23.13;;
4986;SDS011;12674;51.500;7.552;2022-12-07T03:05:41;30.70;;;22.13;;
4986;SDS011;12674;51.500;7.552;2022-12-07T03:07:54;32.30;;;23.20;;
4986;SDS011;12674;51.500;7.552;2022-12-07T03:10:01;29.00;;;22.33;;
4986;SDS011;12674;51.500;7.552;2022-12-07T03:12:08;28.10;;;22.20;;
4986;SDS011;12674;51.500;7.552;2022-12-07T03:14:13;30.67;;;21.60;;
4986;SDS011;12674;51.500;7.552;2022-12-07T03:16:20;29.57;;;22.90;;
4986;SDS011;12674;51.500;7.552;2022-12-07T03:18:27;30.83;;;21.70;;
4986;SDS011;12674;51.500;7.552;2022-12-07T03:20:34;29.07;;;22.77;;
4986;SDS011;12674;51.500;7.552;2022-12-07T03:22:38;27.00;;;19.63;;
4986;SDS011;12674;51.500;7.552;2022-12-07T03:24:43;26.07;;;20.80;;
4986;SDS011;12674;51.500;7.552;2022-12-07T03:26:50;28.47;;;20.87;;
4986;SDS011;12674;51.500;7.552;2022-12-07T03:28:56;28.70;;;21.17;;
4986;SDS011;12674;51.500;7.552;2022-12-07T03:31:02;28.87;;;21.80;;
4986;SDS011;12674;51.500;7.552;2022-12-07T03:33:09;31.40;;;21.90;;
4986;SDS011;12674;51.500;7.552;2022-12-07T03:35:15;32.97;;;22.17;;
4986;SDS011;12674;51.500;7.552;2022-12-07T03:37:23;36.20;;;21.13;;
4986;SDS011;12674;51.500;7.552;2022-12-07T03:39:30;26.00;;;20.87;;
4986;SDS011;12674;51.500;7.552;2022-12-07T03:41:36;25.77;;;19.77;;
4986;SDS011;12674;51.500;7.552;2022-12-07T03:43:45;28.60;;;20.43;;
4986;SDS011;12674;51.500;7.552;2022-12-07T03:45:51;32.00;;;21.30;;
4986;SDS011;12674;51.500;7.552;2022-12-07T03:48:00;40.77;;;22.63;;
4986;SDS011;12674;51.500;7.552;2022-12-07T03:50:07;35.90;;;21.37;;
4986;SDS011;12674;51.500;7.552;2022-12-07T03:52:16;28.77;;;19.53;;
4986;SDS011;12674;51.500;7.552;2022-12-07T03:54:24;28.50;;;19.30;;
4986;SDS011;12674;51.500;7.552;2022-12-07T03:56:29;30.13;;;20.03;;
4986;SDS011;12674;51.500;7.552;2022-12-07T03:58:32;22.97;;;18.77;;
4986;SDS011;12674;51.500;7.552;2022-12-07T04:00:36;27.07;;;18.60;;
4986;SDS011;12674;51.500;7.552;2022-12-07T04:02:40;21.73;;;17.70;;
4986;SDS011;12674;51.500;7.552;2022-12-07T04:04:43;31.60;;;20.87;;
4986;SDS011;12674;51.500;7.552;2022-12-07T04:06:46;27.83;;;20.93;;
4986;SDS011;12674;51.500;7.552;2022-12-07T04:08:49;26.10;;;19.30;;
4986;SDS011;12674;51.500;7.552;2022-12-07T04:10:54;26.07;;;19.77;;
4986;SDS011;12674;51.500;7.552;2022-12-07T04:12:57;28.27;;;21.10;;
4986;SDS011;12674;51.500;7.552;2022-12-07T04:15:00;25.47;;;20.50;;
4986;SDS011;12674;51.500;7.552;2022-12-07T04:17:03;28.67;;;21.30;;
4986;SDS011;12674;51.500;7.552;2022-12-07T04:19:06;30.97;;;23.20;;
4986;SDS011;12674;51.500;7.552;2022-12-07T04:21:09;39.60;;;23.90;;
4986;SDS011;12674;51.500;7.552;2022-12-07T04:23:12;31.73;;;24.27;;
4986;SDS011;12674;51.500;7.552;2022-12-07T04:25:17;33.27;;;23.30;;
4986;SDS011;12674;51.500;7.552;2022-12-07T04:27:21;33.40;;;23.13;;
4986;SDS011;12674;51.500;7.552;2022-12-07T04:29:24;33.07;;;24.07;;
4986;SDS011;12674;51.500;7.552;2022-12-07T04:31:27;42.07;;;26.87;;
4986;SDS011;12674;51.500;7.552;2022-12-07T04:33:31;35.40;;;23.40;;
4986;SDS011;12674;51.500;7.552;2022-12-07T04:35:34;35.20;;;23.23;;
4986;SDS011;12674;51.500;7.552;2022-12-07T04:37:37;34.93;;;24.33;;
4986;SDS011;12674;51.500;7.552;2022-12-07T04:39:41;32.87;;;21.80;;
4986;SDS011;12674;51.500;7.552;2022-12-07T04:41:45;32.63;;;23.03;;
4986;SDS011;12674;51.500;7.552;2022-12-07T04:43:50;33.50;;;22.67;;
4986;SDS011;12674;51.500;7.552;2022-12-07T04:45:53;27.77;;;21.80;;
4986;SDS011;12674;51.500;7.552;2022-12-07T04:47:56;30.73;;;22.17;;
4986;SDS011;12674;51.500;7.552;2022-12-07T04:49:59;31.70;;;22.03;;
4986;SDS011;12674;51.500;7.552;2022-12-07T04:52:03;33.07;;;21.73;;
4986;SDS011;12674;51.500;7.552;2022-12-07T04:54:06;35.23;;;22.73;;
4986;SDS011;12674;51.500;7.552;2022-12-07T04:56:09;32.80;;;21.03;;
4986;SDS011;12674;51.500;7.552;2022-12-07T04:58:12;37.47;;;20.80;;
4986;SDS011;12674;51.500;7.552;2022-12-07T05:00:17;33.97;;;22.50;;
4986;SDS011;12674;51.500;7.552;2022-12-07T05:02:20;37.47;;;20.97;;
4986;SDS011;12674;51.500;7.552;2022-12-07T05:04:24;36.23;;;21.10;;
4986;SDS011;12674;51.500;7.552;2022-12-07T05:06:26;30.17;;;20.63;;
4986;SDS011;12674;51.500;7.552;2022-12-07T05:08:30;26.80;;;20.47;;
4986;SDS011;12674;51.500;7.552;2022-12-07T05:10:32;29.00;;;20.03;;
4986;SDS011;12674;51.500;7.552;2022-12-07T05:12:35;30.20;;;21.10;;
4986;SDS011;12674;51.500;7.552;2022-12-07T05:14:38;25.70;;;19.70;;
4986;SDS011;12674;51.500;7.552;2022-12-07T05:16:43;30.00;;;19.70;;
4986;SDS011;12674;51.500;7.552;2022-12-07T05:18:47;30.70;;;19.17;;
4986;SDS011;12674;51.500;7.552;2022-12-07T05:20:50;31.90;;;19.20;;
4986;SDS011;12674;51.500;7.552;2022-12-07T05:22:54;24.90;;;18.93;;
4986;SDS011;12674;51.500;7.552;2022-12-07T05:24:59;24.43;;;18.37;;
4986;SDS011;12674;51.500;7.552;2022-12-07T05:27:02;32.50;;;18.97;;
4986;SDS011;12674;51.500;7.552;2022-12-07T05:29:06;28.77;;;20.03;;
4986;SDS011;12674;51.500;7.552;2022-12-07T05:31:09;24.83;;;17.43;;
4986;SDS011;12674;51.500;7.552;2022-12-07T05:33:13;24.50;;;17.83;;
4986;SDS011;12674;51.500;7.552;2022-12-07T05:35:17;26.70;;;19.00;;
4986;SDS011;12674;51.500;7.552;2022-12-07T05:37:20;33.60;;;17.80;;
4986;SDS011;12674;51.500;7.552;2022-12-07T05:39:23;28.03;;;17.90;;
4986;SDS011;12674;51.500;7.552;2022-12-07T05:41:26;27.20;;;18.40;;
4986;SDS011;12674;51.500;7.552;2022-12-07T05:43:47;31.37;;;19.50;;
4986;SDS011;12674;51.500;7.552;2022-12-07T05:45:51;26.60;;;17.47;;
4986;SDS011;12674;51.500;7.552;2022-12-07T05:47:54;30.23;;;19.23;;
4986;SDS011;12674;51.500;7.552;2022-12-07T05:49:58;28.00;;;19.17;;
4986;SDS011;12674;51.500;7.552;2022-12-07T05:52:02;33.90;;;20.80;;
4986;SDS011;12674;51.500;7.552;2022-12-07T05:54:05;31.70;;;20.27;;
4986;SDS011;12674;51.500;7.552;2022-12-07T05:56:09;37.93;;;20.17;;
4986;SDS011;12674;51.500;7.552;2022-12-07T05:58:12;29.70;;;20.80;;
4986;SDS011;12674;51.500;7.552;2022-12-07T06:00:32;30.53;;;19.97;;
4986;SDS011;12674;51.500;7.552;2022-12-07T06:02:35;33.73;;;19.80;;
4986;SDS011;12674;51.500;7.552;2022-12-07T06:04:42;28.60;;;18.77;;
4986;SDS011;12674;51.500;7.552;2022-12-07T06:06:47;26.50;;;18.80;;
4986;SDS011;12674;51.500;7.552;2022-12-07T06:08:50;37.60;;;19.40;;
4986;SDS011;12674;51.500;7.552;2022-12-07T06:10:53;30.27;;;20.77;;
4986;SDS011;12674;51.500;7.552;2022-12-07T06:13:10;30.40;;;19.80;;
4986;SDS011;12674;51.500;7.552;2022-12-07T06:15:13;29.37;;;18.53;;
4986;SDS011;12674;51.500;7.552;2022-12-07T06:17:17;35.77;;;20.83;;
4986;SDS011;12674;51.500;7.552;2022-12-07T06:19:20;28.93;;;20.07;;
4986;SDS011;12674;51.500;7.552;2022-12-07T06:21:23;29.17;;;18.90;;
4986;SDS011;12674;51.500;7.552;2022-12-07T06:23:28;29.97;;;20.57;;
4986;SDS011;12674;51.500;7.552;2022-12-07T06:25:33;39.57;;;19.17;;
4986;SDS011;12674;51.500;7.552;2022-12-07T06:27:36;33.50;;;19.83;;
4986;SDS011;12674;51.500;7.552;2022-12-07T06:29:40;31.30;;;19.23;;
4986;SDS011;12674;51.500;7.552;2022-12-07T06:31:43;26.83;;;17.73;;
4986;SDS011;12674;51.500;7.552;2022-12-07T06:33:46;29.27;;;18.57;;
4986;SDS011;12674;51.500;7.552;2022-12-07T06:35:49;31.50;;;19.20;;
4986;SDS011;12674;51.500;7.552;2022-12-07T06:37:53;26.63;;;19.07;;
4986;SDS011;12674;51.500;7.552;2022-12-07T06:39:57;26.87;;;17.83;;
4986;SDS011;12674;51.500;7.552;2022-12-07T06:42:01;34.13;;;18.40;;
4986;SDS011;12674;51.500;7.552;2022-12-07T06:44:04;32.13;;;18.83;;
4986;SDS011;12674;51.500;7.552;2022-12-07T06:46:07;26.13;;;17.83;;
4986;SDS011;12674;51.500;7.552;2022-12-07T06:48:11;26.90;;;17.47;;
4986;SDS011;12674;51.500;7.552;2022-12-07T06:50:14;25.47;;;17.57;;
4986;SDS011;12674;51.500;7.552;2022-12-07T06:52:17;28.77;;;18.60;;
4986;SDS011;12674;51.500;7.552;2022-12-07T06:54:21;28.80;;;16.60;;
4986;SDS011;12674;51.500;7.552;2022-12-07T06:56:26;27.43;;;17.20;;
4986;SDS011;12674;51.500;7.552;2022-12-07T06:58:30;26.30;;;16.47;;
4986;SDS011;12674;51.500;7.552;2022-12-07T07:00:33;28.03;;;17.10;;
4986;SDS011;12674;51.500;7.552;2022-12-07T07:02:36;22.57;;;15.50;;
4986;SDS011;12674;51.500;7.552;2022-12-07T07:04:39;28.10;;;16.93;;
4986;SDS011;12674;51.500;7.552;2022-12-07T07:06:42;31.87;;;17.73;;
4986;SDS011;12674;51.500;7.552;2022-12-07T07:08:45;23.73;;;16.47;;
4986;SDS011;12674;51.500;7.552;2022-12-07T07:10:48;27.07;;;17.17;;
4986;SDS011;12674;51.500;7.552;2022-12-07T07:12:53;24.23;;;16.43;;
4986;SDS011;12674;51.500;7.552;2022-12-07T07:14:58;27.47;;;16.80;;
4986;SDS011;12674;51.500;7.552;2022-12-07T07:17:01;28.30;;;17.20;;
4986;SDS011;12674;51.500;7.552;2022-12-07T07:19:04;25.70;;;16.70;;
4986;SDS011;12674;51.500;7.552;2022-12-07T07:21:07;34.23;;;19.00;;
4986;SDS011;12674;51.500;7.552;2022-12-07T07:23:10;31.40;;;16.90;;
4986;SDS011;12674;51.500;7.552;2022-12-07T07:25:16;28.53;;;17.27;;
4986;SDS011;12674;51.500;7.552;2022-12-07T07:27:20;31.07;;;18.97;;
4986;SDS011;12674;51.500;7.552;2022-12-07T07:29:25;29.07;;;17.40;;
4986;SDS011;12674;51.500;7.552;2022-12-07T07:31:28;32.60;;;18.90;;
4986;SDS011;12674;51.500;7.552;2022-12-07T07:33:31;28.47;;;15.77;;
4986;SDS011;12674;51.500;7.552;2022-12-07T07:35:34;25.53;;;16.80;;
4986;SDS011;12674;51.500;7.552;2022-12-07T07:37:37;31.40;;;17.80;;
4986;SDS011;12674;51.500;7.552;2022-12-07T07:39:40;26.07;;;16.53;;
4986;SDS011;12674;51.500;7.552;2022-12-07T07:41:43;31.37;;;17.60;;
4986;SDS011;12674;51.500;7.552;2022-12-07T07:43:48;28.67;;;15.70;;
4986;SDS011;12674;51.500;7.552;2022-12-07T07:45:52;28.17;;;16.47;;
4986;SDS011;12674;51.500;7.552;2022-12-07T07:47:55;31.43;;;16.57;;
4986;SDS011;12674;51.500;7.552;2022-12-07T07:49:58;23.93;;;14.53;;
4986;SDS011;12674;51.500;7.552;2022-12-07T07:52:03;22.07;;;13.73;;
4986;SDS011;12674;51.500;7.552;2022-12-07T07:54:07;22.43;;;14.00;;
4986;SDS011;12674;51.500;7.552;2022-12-07T07:56:10;30.30;;;13.67;;
4986;SDS011;12674;51.500;7.552;2022-12-07T07:58:13;23.00;;;14.43;;
4986;SDS011;12674;51.500;7.552;2022-12-07T08:00:16;20.20;;;13.90;;
4986;SDS011;12674;51.500;7.552;2022-12-07T08:02:21;19.30;;;13.10;;
4986;SDS011;12674;51.500;7.552;2022-12-07T08:04:24;24.37;;;13.57;;
4986;SDS011;12674;51.500;7.552;2022-12-07T08:06:27;22.33;;;12.27;;
4986;SDS011;12674;51.500;7.552;2022-12-07T08:08:33;20.20;;;12.00;;
4986;SDS011;12674;51.500;7.552;2022-12-07T08:10:36;22.80;;;13.23;;
4986;SDS011;12674;51.500;7.552;2022-12-07T08:12:40;17.73;;;11.47;;
4986;SDS011;12674;51.500;7.552;2022-12-07T08:14:58;19.90;;;11.87;;
4986;SDS011;12674;51.500;7.552;2022-12-07T08:17:01;23.97;;;12.00;;
4986;SDS011;12674;51.500;7.552;2022-12-07T08:19:06;23.27;;;12.27;;
4986;SDS011;12674;51.500;7.552;2022-12-07T08:21:09;20.07;;;11.87;;
4986;SDS011;12674;51.500;7.552;2022-12-07T08:23:14;25.87;;;11.77;;
4986;SDS011;12674;51.500;7.552;2022-12-07T08:25:17;27.60;;;11.80;;
4986;SDS011;12674;51.500;7.552;2022-12-07T08:27:20;26.93;;;12.10;;
4986;SDS011;12674;51.500;7.552;2022-12-07T08:29:28;22.50;;;10.37;;
4986;SDS011;12674;51.500;7.552;2022-12-07T08:31:31;23.33;;;10.00;;
4986;SDS011;12674;51.500;7.552;2022-12-07T08:33:34;14.37;;;10.33;;
4986;SDS011;12674;51.500;7.552;2022-12-07T08:35:39;22.10;;;10.57;;
4986;SDS011;12674;51.500;7.552;2022-12-07T08:37:42;15.10;;;10.27;;
4986;SDS011;12674;51.500;7.552;2022-12-07T08:39:45;18.60;;;9.27;;
4986;SDS011;12674;51.500;7.552;2022-12-07T08:41:48;16.97;;;9.60;;
4986;SDS011;12674;51.500;7.552;2022-12-07T08:43:51;20.43;;;10.70;;
4986;SDS011;12674;51.500;7.552;2022-12-07T08:45:56;22.63;;;9.33;;
4986;SDS011;12674;51.500;7.552;2022-12-07T08:48:07;15.60;;;9.93;;
4986;SDS011;12674;51.500;7.552;2022-12-07T08:50:11;13.77;;;8.17;;
4986;SDS011;12674;51.500;7.552;2022-12-07T08:52:16;16.70;;;8.20;;
4986;SDS011;12674;51.500;7.552;2022-12-07T08:54:20;15.57;;;8.10;;
4986;SDS011;12674;51.500;7.552;2022-12-07T08:56:23;18.00;;;8.50;;
4986;SDS011;12674;51.500;7.552;2022-12-07T08:58:26;22.20;;;9.03;;
4986;SDS011;12674;51.500;7.552;2022-12-07T09:00:29;16.17;;;7.63;;
4986;SDS011;12674;51.500;7.552;2022-12-07T09:02:33;13.80;;;7.83;;
4986;SDS011;12674;51.500;7.552;2022-12-07T09:04:35;16.53;;;7.20;;
4986;SDS011;12674;51.500;7.552;2022-12-07T09:06:38;12.50;;;7.50;;
4986;SDS011;12674;51.500;7.552;2022-12-07T09:08:43;14.43;;;7.20;;
4986;SDS011;12674;51.500;7.552;2022-12-07T09:10:49;18.90;;;8.10;;
4986;SDS011;12674;51.500;7.552;2022-12-07T09:12:52;13.13;;;8.03;;
4986;SDS011;12674;51.500;7.552;2022-12-07T09:14:55;15.27;;;8.07;;
4986;SDS011;12674;51.500;7.552;2022-12-07T09:17:04;14.77;;;7.47;;
4986;SDS011;12674;51.500;7.552;2022-12-07T09:19:08;10.80;;;7.63;;
4986;SDS011;12674;51.500;7.552;2022-12-07T09:21:11;16.60;;;7.50;;
4986;SDS011;12674;51.500;7.552;2022-12-07T09:23:14;22.00;;;6.87;;
4986;SDS011;12674;51.500;7.552;2022-12-07T09:25:18;18.73;;;8.07;;
4986;SDS011;12674;51.500;7.552;2022-12-07T09:27:21;21.20;;;8.53;;
4986;SDS011;12674;51.500;7.552;2022-12-07T09:29:24;12.30;;;8.20;;
4986;SDS011;12674;51.500;7.552;2022-12-07T09:31:27;15.80;;;7.97;;
4986;SDS011;12674;51.500;7.552;2022-12-07T09:33:31;16.67;;;8.37;;
4986;SDS011;12674;51.500;7.552;2022-12-07T09:35:34;13.43;;;7.53;;
4986;SDS011;12674;51.500;7.552;2022-12-07T09:37:37;13.03;;;7.57;;
4986;SDS011;12674;51.500;7.552;2022-12-07T09:39:40;13.33;;;7.47;;
4986;SDS011;12674;51.500;7.552;2022-12-07T09:41:51;18.40;;;9.07;;
4986;SDS011;12674;51.500;7.552;2022-12-07T09:44:04;16.50;;;8.30;;
4986;SDS011;12674;51.500;7.552;2022-12-07T09:46:09;16.67;;;8.03;;
4986;SDS011;12674;51.500;7.552;2022-12-07T09:48:17;23.23;;;8.60;;
4986;SDS011;12674;51.500;7.552;2022-12-07T09:50:23;21.70;;;8.30;;
4986;SDS011;12674;51.500;7.552;2022-12-07T09:52:27;25.10;;;7.60;;
4986;SDS011;12674;51.500;7.552;2022-12-07T09:54:39;16.90;;;7.87;;
4986;SDS011;12674;51.500;7.552;2022-12-07T09:56:44;20.50;;;8.17;;
4986;SDS011;12674;51.500;7.552;2022-12-07T09:58:49;18.17;;;7.97;;
4986;SDS011;12674;51.500;7.552;2022-12-07T10:00:53;17.63;;;9.00;;
4986;SDS011;12674;51.500;7.552;2022-12-07T10:02:57;20.50;;;8.30;;
4986;SDS011;12674;51.500;7.552;2022-12-07T10:05:00;20.67;;;9.50;;
4986;SDS011;12674;51.500;7.552;2022-12-07T10:07:04;18.67;;;9.40;;
4986;SDS011;12674;51.500;7.552;2022-12-07T10:09:08;16.23;;;9.20;;
4986;SDS011;12674;51.500;7.552;2022-12-07T10:11:12;21.47;;;9.13;;
4986;SDS011;12674;51.500;7.552;2022-12-07T10:13:19;18.20;;;9.53;;
4986;SDS011;12674;51.500;7.552;2022-12-07T10:15:25;23.60;;;9.13;;
4986;SDS011;12674;51.500;7.552;2022-12-07T10:17:47;17.90;;;9.50;;
4986;SDS011;12674;51.500;7.552;2022-12-07T10:19:51;21.27;;;8.87;;
4986;SDS011;12674;51.500;7.552;2022-12-07T10:22:01;17.10;;;9.70;;
4986;SDS011;12674;51.500;7.552;2022-12-07T10:24:13;15.57;;;9.43;;
4986;SDS011;12674;51.500;7.552;2022-12-07T10:26:20;14.63;;;8.80;;
4986;SDS011;12674;51.500;7.552;2022-12-07T10:28:33;12.63;;;9.73;;
4986;SDS011;12674;51.500;7.552;2022-12-07T10:30:51;18.43;;;10.03;;
4986;SDS011;12674;51.500;7.552;2022-12-07T10:32:55;22.07;;;11.00;;
4986;SDS011;12674;51.500;7.552;2022-12-07T10:37:24;23.50;;;10.80;;
4986;SDS011;12674;51.500;7.552;2022-12-07T10:39:29;17.10;;;9.63;;
4986;SDS011;12674;51.500;7.552;2022-12-07T10:41:53;21.97;;;11.30;;
4986;SDS011;12674;51.500;7.552;2022-12-07T10:43:58;24.70;;;10.97;;
4986;SDS011;12674;51.500;7.552;2022-12-07T10:46:17;19.50;;;11.70;;
4986;SDS011;12674;51.500;7.552;2022-12-07T10:48:45;14.93;;;9.80;;
4986;SDS011;12674;51.500;7.552;2022-12-07T10:50:58;16.23;;;11.70;;
4986;SDS011;12674;51.500;7.552;2022-12-07T10:55:40;24.33;;;9.87;;
4986;SDS011;12674;51.500;7.552;2022-12-07T10:57:56;21.90;;;10.17;;
4986;SDS011;12674;51.500;7.552;2022-12-07T11:00:18;15.73;;;10.93;;
4986;SDS011;12674;51.500;7.552;2022-12-07T11:02:40;23.23;;;11.10;;
4986;SDS011;12674;51.500;7.552;2022-12-07T11:04:55;17.13;;;9.53;;
4986;SDS011;12674;51.500;7.552;2022-12-07T11:07:07;21.30;;;9.90;;
4986;SDS011;12674;51.500;7.552;2022-12-07T11:09:36;15.20;;;10.40;;
4986;SDS011;12674;51.500;7.552;2022-12-07T11:12:10;17.43;;;9.90;;
4986;SDS011;12674;51.500;7.552;2022-12-07T11:14:17;23.03;;;10.20;;
4986;SDS011;12674;51.500;7.552;2022-12-07T11:16:34;26.80;;;10.60;;
4986;SDS011;12674;51.500;7.552;2022-12-07T11:18:47;13.10;;;9.00;;
4986;SDS011;12674;51.500;7.552;2022-12-07T11:20:57;16.20;;;9.23;;
4986;SDS011;12674;51.500;7.552;2022-12-07T11:23:14;18.03;;;8.93;;
4986;SDS011;12674;51.500;7.552;2022-12-07T11:25:23;16.43;;;8.97;;
4986;SDS011;12674;51.500;7.552;2022-12-07T11:27:33;13.17;;;8.30;;
4986;SDS011;12674;51.500;7.552;2022-12-07T11:29:51;16.67;;;8.33;;
4986;SDS011;12674;51.500;7.552;2022-12-07T11:32:04;13.23;;;8.13;;
4986;SDS011;12674;51.500;7.552;2022-12-07T11:34:15;19.63;;;7.90;;
4986;SDS011;12674;51.500;7.552;2022-12-07T11:36:31;15.93;;;7.10;;
4986;SDS011;12674;51.500;7.552;2022-12-07T11:38:41;16.40;;;8.70;;
4986;SDS011;12674;51.500;7.552;2022-12-07T11:40:46;17.57;;;7.80;;
4986;SDS011;12674;51.500;7.552;2022-12-07T11:42:52;16.17;;;7.30;;
4986;SDS011;12674;51.500;7.552;2022-12-07T11:44:59;13.03;;;7.80;;
4986;SDS011;12674;51.500;7.552;2022-12-07T11:47:05;15.00;;;6.83;;
4986;SDS011;12674;51.500;7.552;2022-12-07T11:49:12;14.77;;;6.43;;
4986;SDS011;12674;51.500;7.552;2022-12-07T11:51:20;12.13;;;6.57;;
4986;SDS011;12674;51.500;7.552;2022-12-07T11:53:24;18.20;;;7.57;;
4986;SDS011;12674;51.500;7.552;2022-12-07T11:55:30;13.33;;;5.50;;
4986;SDS011;12674;51.500;7.552;2022-12-07T11:57:37;15.27;;;6.87;;
4986;SDS011;12674;51.500;7.552;2022-12-07T11:59:42;15.60;;;6.00;;
4986;SDS011;12674;51.500;7.552;2022-12-07T12:01:53;15.33;;;6.90;;
4986;SDS011;12674;51.500;7.552;2022-12-07T12:03:59;14.50;;;6.80;;
4986;SDS011;12674;51.500;7.552;2022-12-07T12:06:07;14.97;;;6.23;;
4986;SDS011;12674;51.500;7.552;2022-12-07T12:08:13;16.50;;;6.23;;
4986;SDS011;12674;51.500;7.552;2022-12-07T12:10:41;10.80;;;6.23;;
4986;SDS011;12674;51.500;7.552;2022-12-07T12:13:02;19.40;;;7.40;;
4986;SDS011;12674;51.500;7.552;2022-12-07T12:15:42;15.47;;;7.00;;
4986;SDS011;12674;51.500;7.552;2022-12-07T12:17:56;10.80;;;6.00;;
4986;SDS011;12674;51.500;7.552;2022-12-07T12:20:06;17.73;;;7.63;;
4986;SDS011;12674;51.500;7.552;2022-12-07T12:22:21;19.63;;;6.50;;
4986;SDS011;12674;51.500;7.552;2022-12-07T12:24:25;10.23;;;5.93;;
4986;SDS011;12674;51.500;7.552;2022-12-07T12:26:29;11.67;;;5.50;;
4986;SDS011;12674;51.500;7.552;2022-12-07T12:28:35;11.40;;;5.40;;
4986;SDS011;12674;51.500;7.552;2022-12-07T12:31:04;11.33;;;5.57;;
4986;SDS011;12674;51.500;7.552;2022-12-07T12:33:13;16.23;;;6.10;;
4986;SDS011;12674;51.500;7.552;2022-12-07T12:35:27;15.13;;;5.50;;
4986;SDS011;12674;51.500;7.552;2022-12-07T12:37:40;10.40;;;5.47;;